sensor_id;sensor_type;location;lat;lon;timestamp;P1;durP1;ratioP1;P2;durP2;ratioP2
46110;SDS011;31849;55.992;37.252;2023-07-20T00:02:43;5.18;;;1.60;;
46110;SDS011;31849;55.992;37.252;2023-07-20T00:07:47;5.05;;;1.38;;
46110;SDS011;31849;55.992;37.252;2023-07-20T00:12:53;4.07;;;1.67;;
46110;SDS011;31849;55.992;37.252;2023-07-20T00:17:58;2.43;;;1.30;;
46110;SDS011;31849;55.992;37.252;2023-07-20T00:23:02;3.78;;;1.38;;
46110;SDS011;31849;55.992;37.252;2023-07-20T00:28:06;5.83;;;1.57;;
46110;SDS011;31849;55.992;37.252;2023-07-20T00:33:11;4.33;;;1.37;;
46110;SDS011;31849;55.992;37.252;2023-07-20T00:38:15;2.85;;;1.30;;
46110;SDS011;31849;55.992;37.252;2023-07-20T00:43:19;3.05;;;1.30;;
46110;SDS011;31849;55.992;37.252;2023-07-20T00:48:24;4.53;;;1.35;;
46110;SDS011;31849;55.992;37.252;2023-07-20T00:53:29;5.55;;;1.20;;
46110;SDS011;31849;55.992;37.252;2023-07-20T00:58:33;4.32;;;1.40;;
46110;SDS011;31849;55.992;37.252;2023-07-20T01:03:38;2.40;;;1.50;;
46110;SDS011;31849;55.992;37.252;2023-07-20T01:08:43;6.93;;;1.40;;
46110;SDS011;31849;55.992;37.252;2023-07-20T01:13:54;6.13;;;1.20;;
46110;SDS011;31849;55.992;37.252;2023-07-20T01:18:59;3.92;;;1.33;;
46110;SDS011;31849;55.992;37.252;2023-07-20T01:24:15;3.58;;;1.42;;
46110;SDS011;31849;55.992;37.252;2023-07-20T01:29:43;4.40;;;1.40;;
46110;SDS011;31849;55.992;37.252;2023-07-20T01:35:06;3.47;;;1.50;;
46110;SDS011;31849;55.992;37.252;2023-07-20T01:40:16;4.75;;;1.15;;
46110;SDS011;31849;55.992;37.252;2023-07-20T01:45:20;2.70;;;1.33;;
46110;SDS011;31849;55.992;37.252;2023-07-20T01:50:25;2.10;;;1.10;;
46110;SDS011;31849;55.992;37.252;2023-07-20T01:55:29;4.03;;;1.30;;
46110;SDS011;31849;55.992;37.252;2023-07-20T02:00:33;3.87;;;1.50;;
46110;SDS011;31849;55.992;37.252;2023-07-20T02:05:38;4.97;;;1.70;;
46110;SDS011;31849;55.992;37.252;2023-07-20T02:10:41;3.22;;;1.35;;
46110;SDS011;31849;55.992;37.252;2023-07-20T02:15:48;7.22;;;1.50;;
46110;SDS011;31849;55.992;37.252;2023-07-20T02:20:54;7.10;;;1.48;;
46110;SDS011;31849;55.992;37.252;2023-07-20T02:25:58;3.42;;;1.15;;
46110;SDS011;31849;55.992;37.252;2023-07-20T02:31:01;3.67;;;1.23;;
46110;SDS011;31849;55.992;37.252;2023-07-20T02:36:06;3.67;;;1.30;;
46110;SDS011;31849;55.992;37.252;2023-07-20T02:41:10;2.72;;;1.20;;
46110;SDS011;31849;55.992;37.252;2023-07-20T02:46:14;3.87;;;1.30;;
46110;SDS011;31849;55.992;37.252;2023-07-20T02:51:19;4.73;;;1.30;;
46110;SDS011;31849;55.992;37.252;2023-07-20T02:56:23;2.92;;;1.00;;
46110;SDS011;31849;55.992;37.252;2023-07-20T03:01:26;6.80;;;1.40;;
46110;SDS011;31849;55.992;37.252;2023-07-20T03:06:32;4.45;;;1.40;;
46110;SDS011;31849;55.992;37.252;2023-07-20T03:11:38;4.25;;;1.30;;
46110;SDS011;31849;55.992;37.252;2023-07-20T03:16:41;2.43;;;1.10;;
46110;SDS011;31849;55.992;37.252;2023-07-20T03:21:47;4.47;;;1.48;;
46110;SDS011;31849;55.992;37.252;2023-07-20T03:26:50;2.85;;;1.60;;
46110;SDS011;31849;55.992;37.252;2023-07-20T03:31:54;3.67;;;1.30;;
46110;SDS011;31849;55.992;37.252;2023-07-20T03:36:59;2.50;;;1.23;;
46110;SDS011;31849;55.992;37.252;2023-07-20T03:42:03;6.65;;;1.35;;
46110;SDS011;31849;55.992;37.252;2023-07-20T03:47:08;3.28;;;1.33;;
46110;SDS011;31849;55.992;37.252;2023-07-20T03:52:13;5.07;;;1.27;;
46110;SDS011;31849;55.992;37.252;2023-07-20T03:57:17;3.00;;;1.20;;
46110;SDS011;31849;55.992;37.252;2023-07-20T04:02:20;5.33;;;1.20;;
46110;SDS011;31849;55.992;37.252;2023-07-20T04:07:25;5.05;;;1.17;;
46110;SDS011;31849;55.992;37.252;2023-07-20T04:12:29;4.25;;;1.23;;
46110;SDS011;31849;55.992;37.252;2023-07-20T04:17:33;3.50;;;1.10;;
46110;SDS011;31849;55.992;37.252;2023-07-20T04:22:38;2.75;;;1.30;;
46110;SDS011;31849;55.992;37.252;2023-07-20T04:27:42;5.10;;;1.50;;
46110;SDS011;31849;55.992;37.252;2023-07-20T04:32:45;3.15;;;1.30;;
46110;SDS011;31849;55.992;37.252;2023-07-20T04:37:50;2.17;;;1.08;;
46110;SDS011;31849;55.992;37.252;2023-07-20T04:42:54;2.95;;;1.10;;
46110;SDS011;31849;55.992;37.252;2023-07-20T04:47:58;2.83;;;1.20;;
46110;SDS011;31849;55.992;37.252;2023-07-20T04:53:03;3.42;;;1.30;;
46110;SDS011;31849;55.992;37.252;2023-07-20T04:58:07;2.97;;;1.20;;
46110;SDS011;31849;55.992;37.252;2023-07-20T05:03:10;2.33;;;1.15;;
46110;SDS011;31849;55.992;37.252;2023-07-20T05:08:16;2.65;;;1.30;;
46110;SDS011;31849;55.992;37.252;2023-07-20T05:13:19;2.30;;;1.30;;
46110;SDS011;31849;55.992;37.252;2023-07-20T05:18:23;2.47;;;1.25;;
46110;SDS011;31849;55.992;37.252;2023-07-20T05:23:28;4.32;;;1.20;;
46110;SDS011;31849;55.992;37.252;2023-07-20T05:28:32;3.90;;;1.55;;
46110;SDS011;31849;55.992;37.252;2023-07-20T05:33:36;3.58;;;1.35;;
46110;SDS011;31849;55.992;37.252;2023-07-20T05:38:41;3.03;;;1.20;;
46110;SDS011;31849;55.992;37.252;2023-07-20T05:43:44;3.85;;;1.30;;
46110;SDS011;31849;55.992;37.252;2023-07-20T05:48:48;3.58;;;1.60;;
46110;SDS011;31849;55.992;37.252;2023-07-20T05:53:53;5.30;;;1.40;;
46110;SDS011;31849;55.992;37.252;2023-07-20T05:58:57;6.63;;;1.50;;
46110;SDS011;31849;55.992;37.252;2023-07-20T06:04:01;2.17;;;1.23;;
46110;SDS011;31849;55.992;37.252;2023-07-20T06:09:07;2.17;;;1.40;;
46110;SDS011;31849;55.992;37.252;2023-07-20T06:14:13;2.65;;;1.40;;
46110;SDS011;31849;55.992;37.252;2023-07-20T06:19:17;2.97;;;1.63;;
46110;SDS011;31849;55.992;37.252;2023-07-20T06:24:22;2.30;;;1.65;;
46110;SDS011;31849;55.992;37.252;2023-07-20T06:29:26;2.22;;;1.40;;
46110;SDS011;31849;55.992;37.252;2023-07-20T06:34:29;3.28;;;1.40;;
46110;SDS011;31849;55.992;37.252;2023-07-20T06:39:39;4.53;;;1.55;;
46110;SDS011;31849;55.992;37.252;2023-07-20T06:44:46;2.78;;;1.40;;
46110;SDS011;31849;55.992;37.252;2023-07-20T06:49:49;3.28;;;1.50;;
46110;SDS011;31849;55.992;37.252;2023-07-20T06:54:55;3.25;;;1.50;;
46110;SDS011;31849;55.992;37.252;2023-07-20T07:00:05;4.70;;;1.47;;
46110;SDS011;31849;55.992;37.252;2023-07-20T07:05:10;2.50;;;1.17;;
46110;SDS011;31849;55.992;37.252;2023-07-20T07:10:19;1.83;;;1.15;;
46110;SDS011;31849;55.992;37.252;2023-07-20T07:15:23;1.73;;;1.15;;
46110;SDS011;31849;55.992;37.252;2023-07-20T07:20:29;2.30;;;1.40;;
46110;SDS011;31849;55.992;37.252;2023-07-20T07:25:34;2.25;;;1.10;;
46110;SDS011;31849;55.992;37.252;2023-07-20T07:30:38;4.30;;;1.30;;
46110;SDS011;31849;55.992;37.252;2023-07-20T07:35:41;3.28;;;1.10;;
46110;SDS011;31849;55.992;37.252;2023-07-20T07:40:47;3.17;;;1.40;;
46110;SDS011;31849;55.992;37.252;2023-07-20T07:45:53;3.33;;;1.30;;
46110;SDS011;31849;55.992;37.252;2023-07-20T07:50:57;2.22;;;1.30;;
46110;SDS011;31849;55.992;37.252;2023-07-20T07:56:02;3.35;;;1.38;;
46110;SDS011;31849;55.992;37.252;2023-07-20T08:01:06;2.78;;;1.30;;
46110;SDS011;31849;55.992;37.252;2023-07-20T08:06:10;3.08;;;1.40;;
46110;SDS011;31849;55.992;37.252;2023-07-20T08:11:16;3.00;;;1.50;;
46110;SDS011;31849;55.992;37.252;2023-07-20T08:16:20;4.18;;;1.30;;
46110;SDS011;31849;55.992;37.252;2023-07-20T08:21:25;3.58;;;1.45;;
46110;SDS011;31849;55.992;37.252;2023-07-20T08:26:30;3.17;;;1.40;;
46110;SDS011;31849;55.992;37.252;2023-07-20T08:31:33;4.53;;;1.30;;
46110;SDS011;31849;55.992;37.252;2023-07-20T08:36:37;2.88;;;1.30;;
46110;SDS011;31849;55.992;37.252;2023-07-20T08:41:42;3.47;;;1.35;;
46110;SDS011;31849;55.992;37.252;2023-07-20T08:46:46;3.55;;;1.33;;
46110;SDS011;31849;55.992;37.252;2023-07-20T08:51:54;3.53;;;1.40;;
46110;SDS011;31849;55.992;37.252;2023-07-20T08:56:59;3.22;;;1.42;;
46110;SDS011;31849;55.992;37.252;2023-07-20T09:02:05;4.88;;;1.33;;
46110;SDS011;31849;55.992;37.252;2023-07-20T09:07:18;3.50;;;1.20;;
46110;SDS011;31849;55.992;37.252;2023-07-20T09:12:24;4.35;;;1.60;;
46110;SDS011;31849;55.992;37.252;2023-07-20T09:17:28;5.97;;;1.40;;
46110;SDS011;31849;55.992;37.252;2023-07-20T09:22:32;3.08;;;1.30;;
46110;SDS011;31849;55.992;37.252;2023-07-20T09:27:37;4.75;;;1.20;;
46110;SDS011;31849;55.992;37.252;2023-07-20T09:32:45;2.72;;;1.27;;
46110;SDS011;31849;55.992;37.252;2023-07-20T09:37:54;3.28;;;1.40;;
46110;SDS011;31849;55.992;37.252;2023-07-20T09:43:02;2.95;;;1.58;;
46110;SDS011;31849;55.992;37.252;2023-07-20T09:48:13;2.72;;;1.60;;
46110;SDS011;31849;55.992;37.252;2023-07-20T09:53:22;3.72;;;1.67;;
46110;SDS011;31849;55.992;37.252;2023-07-20T09:58:30;3.05;;;1.73;;
46110;SDS011;31849;55.992;37.252;2023-07-20T10:03:34;4.15;;;1.77;;
46110;SDS011;31849;55.992;37.252;2023-07-20T10:08:41;2.33;;;1.30;;
46110;SDS011;31849;55.992;37.252;2023-07-20T10:13:53;5.05;;;1.90;;
46110;SDS011;31849;55.992;37.252;2023-07-20T10:18:59;4.32;;;1.70;;
46110;SDS011;31849;55.992;37.252;2023-07-20T10:24:18;4.15;;;1.65;;
46110;SDS011;31849;55.992;37.252;2023-07-20T10:29:23;3.50;;;1.25;;
46110;SDS011;31849;55.992;37.252;2023-07-20T10:34:31;3.15;;;1.60;;
46110;SDS011;31849;55.992;37.252;2023-07-20T10:44:39;3.70;;;1.60;;
46110;SDS011;31849;55.992;37.252;2023-07-20T10:49:59;3.80;;;1.73;;
46110;SDS011;31849;55.992;37.252;2023-07-20T10:55:10;3.75;;;1.58;;
46110;SDS011;31849;55.992;37.252;2023-07-20T11:00:18;6.45;;;1.75;;
46110;SDS011;31849;55.992;37.252;2023-07-20T11:05:37;3.67;;;1.67;;
46110;SDS011;31849;55.992;37.252;2023-07-20T11:10:42;3.55;;;1.58;;
46110;SDS011;31849;55.992;37.252;2023-07-20T11:15:48;3.72;;;1.80;;
46110;SDS011;31849;55.992;37.252;2023-07-20T11:21:07;6.00;;;2.00;;
46110;SDS011;31849;55.992;37.252;2023-07-20T11:26:12;16.23;;;5.00;;
46110;SDS011;31849;55.992;37.252;2023-07-20T11:31:19;4.70;;;2.25;;
46110;SDS011;31849;55.992;37.252;2023-07-20T11:36:23;7.13;;;2.10;;
46110;SDS011;31849;55.992;37.252;2023-07-20T11:41:29;4.70;;;2.10;;
46110;SDS011;31849;55.992;37.252;2023-07-20T11:46:35;3.83;;;1.60;;
46110;SDS011;31849;55.992;37.252;2023-07-20T11:51:40;4.03;;;1.73;;
46110;SDS011;31849;55.992;37.252;2023-07-20T11:56:43;4.03;;;1.58;;
46110;SDS011;31849;55.992;37.252;2023-07-20T12:01:51;3.95;;;1.60;;
46110;SDS011;31849;55.992;37.252;2023-07-20T12:06:55;2.53;;;1.35;;
46110;SDS011;31849;55.992;37.252;2023-07-20T12:12:00;3.85;;;1.60;;
46110;SDS011;31849;55.992;37.252;2023-07-20T12:17:15;3.17;;;1.77;;
46110;SDS011;31849;55.992;37.252;2023-07-20T12:22:19;4.32;;;1.80;;
46110;SDS011;31849;55.992;37.252;2023-07-20T12:27:27;3.35;;;1.67;;
46110;SDS011;31849;55.992;37.252;2023-07-20T12:32:32;5.55;;;1.50;;
46110;SDS011;31849;55.992;37.252;2023-07-20T12:37:36;2.33;;;1.48;;
46110;SDS011;31849;55.992;37.252;2023-07-20T12:42:40;3.55;;;1.25;;
46110;SDS011;31849;55.992;37.252;2023-07-20T12:47:45;4.47;;;1.58;;
46110;SDS011;31849;55.992;37.252;2023-07-20T12:52:50;2.78;;;1.30;;
46110;SDS011;31849;55.992;37.252;2023-07-20T12:57:53;3.95;;;1.45;;
46110;SDS011;31849;55.992;37.252;2023-07-20T13:02:58;4.55;;;1.60;;
46110;SDS011;31849;55.992;37.252;2023-07-20T13:08:09;3.60;;;1.63;;
46110;SDS011;31849;55.992;37.252;2023-07-20T13:13:16;2.85;;;1.30;;
46110;SDS011;31849;55.992;37.252;2023-07-20T13:18:21;3.47;;;1.73;;
46110;SDS011;31849;55.992;37.252;2023-07-20T13:23:24;2.72;;;1.30;;
46110;SDS011;31849;55.992;37.252;2023-07-20T13:28:28;3.42;;;1.70;;
46110;SDS011;31849;55.992;37.252;2023-07-20T13:33:33;2.45;;;1.30;;
46110;SDS011;31849;55.992;37.252;2023-07-20T13:38:40;4.38;;;2.03;;
46110;SDS011;31849;55.992;37.252;2023-07-20T13:43:44;2.55;;;1.40;;
46110;SDS011;31849;55.992;37.252;2023-07-20T13:48:49;3.38;;;1.50;;
46110;SDS011;31849;55.992;37.252;2023-07-20T13:53:56;4.00;;;1.63;;
46110;SDS011;31849;55.992;37.252;2023-07-20T13:59:20;4.85;;;1.90;;
46110;SDS011;31849;55.992;37.252;2023-07-20T14:04:25;4.70;;;1.70;;
46110;SDS011;31849;55.992;37.252;2023-07-20T14:09:29;6.57;;;2.00;;
46110;SDS011;31849;55.992;37.252;2023-07-20T14:14:33;5.72;;;2.13;;
46110;SDS011;31849;55.992;37.252;2023-07-20T14:19:38;4.80;;;2.05;;
46110;SDS011;31849;55.992;37.252;2023-07-20T14:24:44;5.40;;;1.70;;
46110;SDS011;31849;55.992;37.252;2023-07-20T14:29:48;8.02;;;1.92;;
46110;SDS011;31849;55.992;37.252;2023-07-20T14:34:54;5.20;;;1.75;;
46110;SDS011;31849;55.992;37.252;2023-07-20T14:39:57;4.82;;;1.58;;
46110;SDS011;31849;55.992;37.252;2023-07-20T14:45:01;4.32;;;1.50;;
46110;SDS011;31849;55.992;37.252;2023-07-20T14:50:08;4.72;;;1.63;;
46110;SDS011;31849;55.992;37.252;2023-07-20T14:55:12;4.95;;;1.90;;
46110;SDS011;31849;55.992;37.252;2023-07-20T15:00:17;4.53;;;1.88;;
46110;SDS011;31849;55.992;37.252;2023-07-20T15:05:27;5.65;;;1.92;;
46110;SDS011;31849;55.992;37.252;2023-07-20T15:10:31;4.47;;;1.60;;
46110;SDS011;31849;55.992;37.252;2023-07-20T15:15:35;3.80;;;1.70;;
46110;SDS011;31849;55.992;37.252;2023-07-20T15:20:41;5.93;;;1.77;;
46110;SDS011;31849;55.992;37.252;2023-07-20T15:25:45;4.03;;;1.60;;
46110;SDS011;31849;55.992;37.252;2023-07-20T15:30:49;4.47;;;1.40;;
46110;SDS011;31849;55.992;37.252;2023-07-20T15:51:31;5.22;;;1.80;;
46110;SDS011;31849;55.992;37.252;2023-07-20T15:56:36;3.60;;;1.92;;
46110;SDS011;31849;55.992;37.252;2023-07-20T16:01:41;4.82;;;1.95;;
46110;SDS011;31849;55.992;37.252;2023-07-20T16:06:48;3.60;;;1.60;;
46110;SDS011;31849;55.992;37.252;2023-07-20T16:11:52;4.70;;;1.60;;
46110;SDS011;31849;55.992;37.252;2023-07-20T16:16:56;5.13;;;1.58;;
46110;SDS011;31849;55.992;37.252;2023-07-20T16:22:02;3.58;;;1.40;;
46110;SDS011;31849;55.992;37.252;2023-07-20T16:27:06;4.53;;;1.60;;
46110;SDS011;31849;55.992;37.252;2023-07-20T16:32:10;3.83;;;1.50;;
46110;SDS011;31849;55.992;37.252;2023-07-20T16:37:15;3.78;;;1.63;;
46110;SDS011;31849;55.992;37.252;2023-07-20T16:42:22;6.75;;;1.70;;
46110;SDS011;31849;55.992;37.252;2023-07-20T16:47:28;3.05;;;1.40;;
46110;SDS011;31849;55.992;37.252;2023-07-20T16:52:34;5.43;;;1.45;;
46110;SDS011;31849;55.992;37.252;2023-07-20T16:57:37;3.38;;;1.70;;
46110;SDS011;31849;55.992;37.252;2023-07-20T17:02:41;3.30;;;1.40;;
46110;SDS011;31849;55.992;37.252;2023-07-20T17:07:46;3.53;;;1.60;;
46110;SDS011;31849;55.992;37.252;2023-07-20T17:12:57;5.22;;;1.60;;
46110;SDS011;31849;55.992;37.252;2023-07-20T17:18:00;4.07;;;1.52;;
46110;SDS011;31849;55.992;37.252;2023-07-20T17:23:05;5.82;;;1.98;;
46110;SDS011;31849;55.992;37.252;2023-07-20T17:28:09;5.93;;;1.60;;
46110;SDS011;31849;55.992;37.252;2023-07-20T17:33:16;5.03;;;1.85;;
46110;SDS011;31849;55.992;37.252;2023-07-20T17:38:21;3.70;;;1.83;;
46110;SDS011;31849;55.992;37.252;2023-07-20T17:43:28;3.30;;;1.60;;
46110;SDS011;31849;55.992;37.252;2023-07-20T17:48:31;3.70;;;1.80;;
46110;SDS011;31849;55.992;37.252;2023-07-20T17:53:37;3.83;;;2.00;;
46110;SDS011;31849;55.992;37.252;2023-07-20T17:58:41;7.78;;;2.40;;
46110;SDS011;31849;55.992;37.252;2023-07-20T18:03:44;3.23;;;2.10;;
46110;SDS011;31849;55.992;37.252;2023-07-20T18:08:49;5.00;;;2.17;;
46110;SDS011;31849;55.992;37.252;2023-07-20T18:13:53;4.78;;;2.53;;
46110;SDS011;31849;55.992;37.252;2023-07-20T18:18:59;5.53;;;2.30;;
46110;SDS011;31849;55.992;37.252;2023-07-20T18:24:04;5.93;;;2.33;;
46110;SDS011;31849;55.992;37.252;2023-07-20T18:29:08;8.20;;;2.20;;
46110;SDS011;31849;55.992;37.252;2023-07-20T18:34:11;4.63;;;2.03;;
46110;SDS011;31849;55.992;37.252;2023-07-20T18:39:17;6.65;;;2.40;;
46110;SDS011;31849;55.992;37.252;2023-07-20T18:44:20;3.85;;;2.40;;
46110;SDS011;31849;55.992;37.252;2023-07-20T18:49:24;5.03;;;2.23;;
46110;SDS011;31849;55.992;37.252;2023-07-20T18:54:30;5.30;;;2.25;;
46110;SDS011;31849;55.992;37.252;2023-07-20T18:59:33;6.80;;;2.40;;
46110;SDS011;31849;55.992;37.252;2023-07-20T19:04:37;5.07;;;2.40;;
46110;SDS011;31849;55.992;37.252;2023-07-20T19:09:43;7.35;;;2.50;;
46110;SDS011;31849;55.992;37.252;2023-07-20T19:14:46;5.47;;;2.40;;
46110;SDS011;31849;55.992;37.252;2023-07-20T19:19:50;6.40;;;3.00;;
46110;SDS011;31849;55.992;37.252;2023-07-20T19:24:55;6.00;;;3.55;;
46110;SDS011;31849;55.992;37.252;2023-07-20T19:29:59;5.05;;;2.85;;
46110;SDS011;31849;55.992;37.252;2023-07-20T19:35:05;3.47;;;2.40;;
46110;SDS011;31849;55.992;37.252;2023-07-20T19:45:14;10.15;;;2.80;;
46110;SDS011;31849;55.992;37.252;2023-07-20T19:50:18;5.22;;;3.05;;
46110;SDS011;31849;55.992;37.252;2023-07-20T19:55:23;6.60;;;2.80;;
46110;SDS011;31849;55.992;37.252;2023-07-20T20:00:26;5.30;;;2.80;;
46110;SDS011;31849;55.992;37.252;2023-07-20T20:05:33;7.35;;;2.67;;
46110;SDS011;31849;55.992;37.252;2023-07-20T20:10:40;6.72;;;2.85;;
46110;SDS011;31849;55.992;37.252;2023-07-20T20:15:47;6.80;;;2.72;;
46110;SDS011;31849;55.992;37.252;2023-07-20T20:20:53;5.88;;;3.00;;
46110;SDS011;31849;55.992;37.252;2023-07-20T20:26:00;7.55;;;2.90;;
46110;SDS011;31849;55.992;37.252;2023-07-20T20:31:04;5.55;;;2.47;;
46110;SDS011;31849;55.992;37.252;2023-07-20T20:36:08;5.93;;;2.85;;
46110;SDS011;31849;55.992;37.252;2023-07-20T20:41:13;5.83;;;2.53;;
46110;SDS011;31849;55.992;37.252;2023-07-20T20:46:17;4.88;;;2.65;;
46110;SDS011;31849;55.992;37.252;2023-07-20T20:51:22;6.32;;;2.38;;
46110;SDS011;31849;55.992;37.252;2023-07-20T20:56:27;4.90;;;2.30;;
46110;SDS011;31849;55.992;37.252;2023-07-20T21:01:32;6.05;;;2.75;;
46110;SDS011;31849;55.992;37.252;2023-07-20T21:06:36;5.57;;;2.53;;
46110;SDS011;31849;55.992;37.252;2023-07-20T21:11:41;6.88;;;2.60;;
46110;SDS011;31849;55.992;37.252;2023-07-20T21:16:45;9.15;;;2.88;;
46110;SDS011;31849;55.992;37.252;2023-07-20T21:21:48;5.90;;;2.63;;
46110;SDS011;31849;55.992;37.252;2023-07-20T21:26:53;5.80;;;2.30;;
46110;SDS011;31849;55.992;37.252;2023-07-20T21:31:57;4.43;;;2.70;;
46110;SDS011;31849;55.992;37.252;2023-07-20T21:37:02;6.53;;;2.45;;
46110;SDS011;31849;55.992;37.252;2023-07-20T21:42:08;5.50;;;2.08;;
46110;SDS011;31849;55.992;37.252;2023-07-20T21:47:12;6.97;;;2.30;;
46110;SDS011;31849;55.992;37.252;2023-07-20T21:52:16;5.22;;;2.25;;
46110;SDS011;31849;55.992;37.252;2023-07-20T21:57:21;4.82;;;2.28;;
46110;SDS011;31849;55.992;37.252;2023-07-20T22:02:25;8.35;;;2.53;;
46110;SDS011;31849;55.992;37.252;2023-07-20T22:07:29;7.50;;;2.63;;
46110;SDS011;31849;55.992;37.252;2023-07-20T22:12:34;4.03;;;2.20;;
46110;SDS011;31849;55.992;37.252;2023-07-20T22:17:38;5.80;;;2.20;;
46110;SDS011;31849;55.992;37.252;2023-07-20T22:22:42;4.57;;;2.43;;
46110;SDS011;31849;55.992;37.252;2023-07-20T22:27:47;5.93;;;2.30;;
46110;SDS011;31849;55.992;37.252;2023-07-20T22:32:51;5.15;;;2.35;;
46110;SDS011;31849;55.992;37.252;2023-07-20T22:37:54;6.07;;;2.20;;
46110;SDS011;31849;55.992;37.252;2023-07-20T22:42:59;7.03;;;2.30;;
46110;SDS011;31849;55.992;37.252;2023-07-20T22:48:04;4.57;;;2.40;;
46110;SDS011;31849;55.992;37.252;2023-07-20T22:53:08;4.53;;;2.25;;
46110;SDS011;31849;55.992;37.252;2023-07-20T22:58:13;5.32;;;2.30;;
46110;SDS011;31849;55.992;37.252;2023-07-20T23:03:16;5.05;;;1.98;;
46110;SDS011;31849;55.992;37.252;2023-07-20T23:08:20;7.53;;;2.50;;
46110;SDS011;31849;55.992;37.252;2023-07-20T23:13:25;6.93;;;2.70;;
46110;SDS011;31849;55.992;37.252;2023-07-20T23:18:30;6.95;;;2.10;;
46110;SDS011;31849;55.992;37.252;2023-07-20T23:23:35;6.68;;;2.53;;
46110;SDS011;31849;55.992;37.252;2023-07-20T23:28:42;7.38;;;2.47;;
46110;SDS011;31849;55.992;37.252;2023-07-20T23:33:47;4.55;;;2.40;;
46110;SDS011;31849;55.992;37.252;2023-07-20T23:38:52;4.25;;;2.30;;
46110;SDS011;31849;55.992;37.252;2023-07-20T23:43:58;8.65;;;2.42;;
46110;SDS011;31849;55.992;37.252;2023-07-20T23:49:01;7.82;;;2.92;;
46110;SDS011;31849;55.992;37.252;2023-07-20T23:54:06;5.93;;;2.40;;
46110;SDS011;31849;55.992;37.252;2023-07-20T23:59:11;6.85;;;2.67;;
